Time;durP1;ratioP1;P1;durP2;ratioP2;P2;SDS_P1;SDS_P2;PMS_P1;PMS_P2;Temp;Humidity;BMP_temperature;BMP_pressure;BME280_temperature;BME280_humidity;BME280_pressure;Samples;Min_cycle;Max_cycle;Signal;HPM_P1;HPM_P2
2023/03/25 00:00:14;;;;;;;;;;;;;;;12.36;100.00;97273.16;5080284;28;19931;-64
2023/03/25 00:02:43;;;;;;;;;;;;;;;12.30;100.00;97272.44;5072840;28;19955;-64
2023/03/25 00:05:11;;;;;;;;;;;;;;;12.12;100.00;97275.91;5080215;28;19921;-63
2023/03/25 00:07:37;;;;;;;;;;;;;;;12.09;100.00;97283.72;5072146;28;19925;-64
2023/03/25 00:10:06;;;;;;;;;;;;;;;12.04;100.00;97286.47;5079001;28;19960;-63
2023/03/25 00:12:32;;;;;;;;;;;;;;;11.91;100.00;97279.94;5083202;28;20502;-64
2023/03/25 00:14:59;;;;;;;;;;;;;;;11.88;100.00;97275.91;5083270;28;19972;-64
2023/03/25 00:17:27;;;;;;;;;;;;;;;11.98;100.00;97276.88;5081533;28;19920;-63
2023/03/25 00:19:54;;;;;;;;;;;;;;;12.10;100.00;97266.56;5095888;28;19943;-64
2023/03/25 00:22:20;;;;;;;;;;;;;;;12.19;100.00;97283.59;5081225;28;20015;-64
2023/03/25 00:24:47;;;;;;;;;;;;;;;12.10;100.00;97278.06;5083530;28;19970;-64
2023/03/25 00:27:16;;;;;;;;;;;;;;;11.99;100.00;97278.47;5081825;28;20497;-64
2023/03/25 00:29:42;;;;;;;;;;;;;;;11.99;100.00;97278.47;5079825;28;19925;-65
2023/03/25 00:32:09;;;;;;;;;;;;;;;12.07;100.00;97272.50;5078789;28;19921;-63
2023/03/25 00:34:40;;;;;;;;;;;;;;;11.91;100.00;97271.91;5083220;28;20360;-63
2023/03/25 00:37:07;;;;;;;;;;;;;;;11.88;100.00;97267.13;5083435;28;19928;-63
2023/03/25 00:39:34;;;;;;;;;;;;;;;12.00;100.00;97264.81;5080144;28;19984;-64
2023/03/25 00:42:01;;;;;;;;;;;;;;;11.73;100.00;97260.06;5079674;28;19932;-64
2023/03/25 00:44:29;;;;;;;;;;;;;;;11.74;100.00;97264.34;5081811;28;20315;-64
2023/03/25 00:46:55;;;;;;;;;;;;;;;11.78;100.00;97257.34;5083071;28;19971;-63
2023/03/25 00:49:23;;;;;;;;;;;;;;;11.89;100.00;97264.16;5081601;28;19959;-64
2023/03/25 00:51:50;;;;;;;;;;;;;;;11.75;100.00;97257.91;5079600;28;19940;-64
2023/03/25 00:54:17;;;;;;;;;;;;;;;11.86;100.00;97261.25;5079008;28;19921;-63
2023/03/25 00:56:43;;;;;;;;;;;;;;;11.69;100.00;97259.03;5083044;28;19967;-63
2023/03/25 00:59:10;;;;;;;;;;;;;;;11.73;100.00;97260.06;5082769;28;19920;-63
2023/03/25 01:01:38;;;;;;;;;;;;;;;11.68;100.00;97254.75;5075422;28;19932;-63
2023/03/25 01:04:10;;;;;;;;;;;;;;;11.62;100.00;97260.44;5079264;28;20000;-63
2023/03/25 01:06:40;;;;;;;;;;;;;;;11.60;100.00;97249.25;5070954;28;19997;-63
2023/03/25 01:09:08;;;;;;;;;;;;;;;11.73;100.00;97257.38;5079092;28;19935;-64
2023/03/25 01:11:37;;;;;;;;;;;;;;;11.74;100.00;97250.97;5082360;28;19931;-63
2023/03/25 01:14:04;;;;;;;;;;;;;;;11.73;100.00;97248.56;5082539;28;19952;-63
2023/03/25 01:16:32;;;;;;;;;;;;;;;11.61;100.00;97240.91;5079774;28;19924;-63
2023/03/25 01:19:00;;;;;;;;;;;;;;;11.49;100.00;97237.84;5079097;28;19952;-63
2023/03/25 01:21:26;;;;;;;;;;;;;;;11.54;100.00;97243.16;5079837;28;19980;-64
2023/03/25 01:23:53;;;;;;;;;;;;;;;11.50;100.00;97227.97;5082365;28;19964;-63
2023/03/25 01:26:19;;;;;;;;;;;;;;;11.58;100.00;97238.00;5081071;28;19921;-63
2023/03/25 01:28:46;;;;;;;;;;;;;;;11.57;100.00;97229.22;5078757;28;19956;-63
2023/03/25 01:31:14;;;;;;;;;;;;;;;11.54;100.00;97232.47;5098086;28;20042;-63
2023/03/25 01:33:41;;;;;;;;;;;;;;;11.62;100.00;97234.50;5078876;28;19927;-63
2023/03/25 01:36:11;;;;;;;;;;;;;;;11.65;100.00;97236.59;5078281;28;19968;-63
2023/03/25 01:38:38;;;;;;;;;;;;;;;11.46;100.00;97238.41;5070634;28;19987;-63
2023/03/25 01:41:05;;;;;;;;;;;;;;;11.55;100.00;97241.25;5078625;28;19943;-63
2023/03/25 01:43:31;;;;;;;;;;;;;;;11.46;100.00;97241.09;5081396;28;19974;-63
2023/03/25 01:45:58;;;;;;;;;;;;;;;11.66;100.00;97242.75;5082097;28;19925;-63
2023/03/25 01:48:27;;;;;;;;;;;;;;;11.69;100.00;97242.19;5080220;28;19959;-63
2023/03/25 01:50:55;;;;;;;;;;;;;;;11.62;100.00;97242.53;5078292;28;19966;-63
2023/03/25 01:53:24;;;;;;;;;;;;;;;11.53;100.00;97236.22;5079705;28;19940;-63
2023/03/25 01:55:51;;;;;;;;;;;;;;;11.50;100.00;97228.75;5081778;28;19925;-63
2023/03/25 01:58:19;;;;;;;;;;;;;;;11.37;100.00;97234.78;5080956;28;20014;-63
2023/03/25 02:00:46;;;;;;;;;;;;;;;11.52;100.00;97242.63;5078526;28;19956;-63
2023/03/25 02:03:13;;;;;;;;;;;;;;;11.53;100.00;97235.41;5080839;28;19925;-63
2023/03/25 02:05:44;;;;;;;;;;;;;;;11.54;100.00;97234.34;5078604;28;19956;-63
2023/03/25 02:08:11;;;;;;;;;;;;;;;11.39;100.00;97233.41;5078594;28;20015;-63
2023/03/25 02:10:38;;;;;;;;;;;;;;;11.52;100.00;97242.63;5070502;28;19924;-63
2023/03/25 02:13:06;;;;;;;;;;;;;;;11.52;100.00;97228.47;5078688;28;19936;-63
2023/03/25 02:15:40;;;;;;;;;;;;;;;11.51;100.00;97229.56;5081230;28;19940;-63
2023/03/25 02:18:14;;;;;;;;;;;;;;;11.59;100.00;97223.56;5081905;28;19935;-63
2023/03/25 02:21:01;;;;;;;;;;;;;;;11.59;100.00;97218.22;5070826;28;19928;-63
2023/03/25 02:23:41;;;;;;;;;;;;;;;11.67;100.00;97226.41;5080495;28;19929;-63
2023/03/25 02:26:31;;;;;;;;;;;;;;;11.64;100.00;97228.84;5081661;28;19929;-64
2023/03/25 02:29:06;;;;;;;;;;;;;;;11.49;100.00;97237.03;5070171;28;20397;-63
2023/03/25 02:31:47;;;;;;;;;;;;;;;11.58;100.00;97232.66;5081868;28;19933;-63
2023/03/25 02:34:31;;;;;;;;;;;;;;;11.63;100.00;97219.25;5075881;28;19957;-63
2023/03/25 02:37:05;;;;;;;;;;;;;;;11.65;100.00;97230.44;5060339;28;20019;-64
2023/03/25 02:39:39;;;;;;;;;;;;;;;11.52;100.00;97231.13;5078745;28;19935;-64
2023/03/25 02:42:09;;;;;;;;;;;;;;;11.55;100.00;97231.34;5077898;28;20074;-63
2023/03/25 02:44:37;;;;;;;;;;;;;;;11.64;100.00;97236.88;5081038;28;19920;-63
2023/03/25 02:47:05;;;;;;;;;;;;;;;11.55;100.00;97242.06;5081430;28;19931;-63
2023/03/25 02:49:34;;;;;;;;;;;;;;;11.41;100.00;97235.81;5081645;28;19964;-63
2023/03/25 02:52:04;;;;;;;;;;;;;;;11.36;100.00;97238.53;5082143;28;20588;-64
2023/03/25 02:54:33;;;;;;;;;;;;;;;11.55;100.00;97235.91;5084900;28;19996;-64
2023/03/25 02:57:01;;;;;;;;;;;;;;;11.49;100.00;97227.16;5085704;28;19931;-63
2023/03/25 02:59:29;;;;;;;;;;;;;;;11.37;100.00;97227.56;5083046;28;19959;-63
2023/03/25 03:01:57;;;;;;;;;;;;;;;11.33;100.00;97218.50;5081805;28;19947;-63
2023/03/25 03:04:23;;;;;;;;;;;;;;;11.54;100.00;97224.44;5083149;28;19924;-63
2023/03/25 03:06:50;;;;;;;;;;;;;;;11.42;100.00;97233.94;5084965;28;19968;-63
2023/03/25 03:09:21;;;;;;;;;;;;;;;11.44;100.00;97219.19;5083045;28;19936;-63
2023/03/25 03:11:53;;;;;;;;;;;;;;;11.46;100.00;97217.03;5081414;28;19928;-63
2023/03/25 03:14:30;;;;;;;;;;;;;;;11.50;100.00;97228.75;5080799;28;19988;-63
2023/03/25 03:17:02;;;;;;;;;;;;;;;11.42;100.00;97217.91;5083496;28;19988;-63
2023/03/25 03:19:36;;;;;;;;;;;;;;;11.49;100.00;97221.00;5080948;28;19935;-63
2023/03/25 03:22:12;;;;;;;;;;;;;;;11.53;100.00;97212.16;5080212;28;19935;-65
2023/03/25 03:24:40;;;;;;;;;;;;;;;11.36;100.00;97220.59;5072197;28;19935;-63
2023/03/25 03:27:10;;;;;;;;;;;;;;;11.49;100.00;97215.66;5080294;28;19935;-63
2023/03/25 03:29:44;;;;;;;;;;;;;;;11.31;100.00;97214.53;5071723;28;19952;-64
2023/03/25 03:32:12;;;;;;;;;;;;;;;11.34;100.00;97219.31;5076371;28;19980;-63
2023/03/25 03:34:43;;;;;;;;;;;;;;;11.23;100.00;97217.84;5072059;28;20091;-64
2023/03/25 03:37:12;;;;;;;;;;;;;;;11.41;100.00;97213.63;5079821;28;19920;-64
2023/03/25 03:39:39;;;;;;;;;;;;;;;11.36;100.00;97211.78;5071785;28;19956;-64
2023/03/25 03:42:07;;;;;;;;;;;;;;;11.29;100.00;97208.69;5079895;28;19925;-64
2023/03/25 03:44:37;;;;;;;;;;;;;;;11.32;100.00;97211.59;5082738;28;19924;-63
2023/03/25 03:47:07;;;;;;;;;;;;;;;11.44;100.00;97203.16;5083414;28;19987;-63
2023/03/25 03:49:38;;;;;;;;;;;;;;;11.36;100.00;97209.13;5080095;28;20024;-63
2023/03/25 03:52:08;;;;;;;;;;;;;;;11.31;100.00;97215.34;5079733;28;19955;-63
2023/03/25 03:54:38;;;;;;;;;;;;;;;11.31;100.00;97230.56;5081711;28;19931;-63
2023/03/25 03:57:07;;;;;;;;;;;;;;;11.45;100.00;97220.00;5083292;28;19992;-63
2023/03/25 03:59:38;;;;;;;;;;;;;;;11.35;100.00;97218.22;5079371;28;20651;-63
2023/03/25 04:02:08;;;;;;;;;;;;;;;11.42;100.00;97225.91;5075300;28;19966;-63
2023/03/25 04:04:37;;;;;;;;;;;;;;;11.48;100.00;97228.22;5082807;28;20122;-63
2023/03/25 04:07:09;;;;;;;;;;;;;;;11.23;100.00;97226.63;5083140;28;19924;-64
2023/03/25 04:09:39;;;;;;;;;;;;;;;11.28;100.00;97226.59;5079507;28;19956;-64
2023/03/25 04:12:09;;;;;;;;;;;;;;;11.25;100.00;97218.34;5079297;28;19928;-64
2023/03/25 04:14:36;;;;;;;;;;;;;;;11.22;100.00;97226.91;5017055;28;1848683;-64
2023/03/25 04:17:05;;;;;;;;;;;;;;;11.31;100.00;97238.59;5083704;28;19967;-63
2023/03/25 04:19:32;;;;;;;;;;;;;;;11.29;100.00;97232.75;5080932;28;19968;-63
2023/03/25 04:22:00;;;;;;;;;;;;;;;11.24;100.00;97222.88;5080264;28;19925;-63
2023/03/25 04:24:30;;;;;;;;;;;;;;;11.17;100.00;97229.66;5082619;28;19924;-63
2023/03/25 04:26:56;;;;;;;;;;;;;;;11.25;100.00;97240.53;5083746;28;19933;-63
2023/03/25 04:29:23;;;;;;;;;;;;;;;11.20;100.00;97234.44;5082287;28;19989;-63
2023/03/25 04:31:53;;;;;;;;;;;;;;;11.15;100.00;97242.50;5080026;28;19920;-63
2023/03/25 04:34:21;;;;;;;;;;;;;;;11.18;100.00;97244.59;5081213;28;19928;-63
2023/03/25 04:36:49;;;;;;;;;;;;;;;11.27;100.00;97240.22;5083474;28;19987;-63
2023/03/25 04:39:16;;;;;;;;;;;;;;;11.33;100.00;97239.09;5082877;28;20040;-63
2023/03/25 04:41:43;;;;;;;;;;;;;;;11.33;100.00;97241.75;5079963;28;19925;-63
2023/03/25 04:44:09;;;;;;;;;;;;;;;11.34;100.00;97251.38;5080243;28;19975;-63
2023/03/25 04:46:36;;;;;;;;;;;;;;;11.38;100.00;97236.38;5083144;28;19967;-63
2023/03/25 04:49:04;;;;;;;;;;;;;;;11.41;100.00;97240.34;5083311;28;20011;-63
2023/03/25 04:51:33;;;;;;;;;;;;;;;11.29;100.00;97235.41;5080603;28;19924;-63
2023/03/25 04:53:59;;;;;;;;;;;;;;;11.19;100.00;97238.97;5079842;28;19920;-63
2023/03/25 04:56:26;;;;;;;;;;;;;;;10.99;100.00;97235.69;5081725;28;19925;-63
2023/03/25 04:58:53;;;;;;;;;;;;;;;11.02;100.00;97238.59;5083020;28;19930;-62
2023/03/25 05:01:22;;;;;;;;;;;;;;;11.05;100.00;97245.28;5081596;28;19934;-62
2023/03/25 05:03:49;;;;;;;;;;;;;;;11.16;100.00;97238.75;5079102;28;20708;-62
2023/03/25 05:06:16;;;;;;;;;;;;;;;11.19;100.00;97241.66;5079503;28;19925;-62
2023/03/25 05:08:44;;;;;;;;;;;;;;;11.26;100.00;97233.31;5082526;28;19938;-63
2023/03/25 05:11:10;;;;;;;;;;;;;;;11.33;100.00;97233.75;5081535;28;20013;-63
2023/03/25 05:13:36;;;;;;;;;;;;;;;10.99;100.00;97233.81;5079199;28;19996;-63
2023/03/25 05:16:03;;;;;;;;;;;;;;;11.01;100.00;97234.34;5078584;28;19966;-63
2023/03/25 05:18:30;;;;;;;;;;;;;;;11.00;100.00;97229.28;5081196;28;19968;-63
2023/03/25 05:20:56;;;;;;;;;;;;;;;10.73;100.00;97227.13;5082191;28;19977;-63
2023/03/25 05:23:23;;;;;;;;;;;;;;;10.95;100.00;97232.00;5080627;28;19932;-63
2023/03/25 05:25:51;;;;;;;;;;;;;;;10.97;100.00;97235.19;5078969;28;19921;-63
2023/03/25 05:28:17;;;;;;;;;;;;;;;10.75;100.00;97240.97;5079516;28;19964;-63
2023/03/25 05:30:45;;;;;;;;;;;;;;;10.91;100.00;97241.66;5081918;28;19963;-64
2023/03/25 05:33:14;;;;;;;;;;;;;;;10.85;100.00;97246.25;5082198;28;19928;-63
2023/03/25 05:35:41;;;;;;;;;;;;;;;10.99;100.00;97249.06;5070776;28;19921;-63
2023/03/25 05:38:07;;;;;;;;;;;;;;;10.73;100.00;97241.28;5077387;28;19924;-63
2023/03/25 05:40:34;;;;;;;;;;;;;;;10.80;100.00;97243.59;5081499;28;19924;-63
2023/03/25 05:43:02;;;;;;;;;;;;;;;10.81;100.00;97243.34;5081945;28;19932;-64
2023/03/25 05:45:29;;;;;;;;;;;;;;;10.92;100.00;97252.06;5079714;28;19947;-64
2023/03/25 05:47:58;;;;;;;;;;;;;;;10.91;100.00;97252.34;5078452;28;19979;-64
2023/03/25 05:50:24;;;;;;;;;;;;;;;10.80;100.00;97257.75;5079721;28;19925;-64
2023/03/25 05:52:50;;;;;;;;;;;;;;;10.98;100.00;97256.28;5081730;28;19983;-63
2023/03/25 05:55:18;;;;;;;;;;;;;;;10.90;100.00;97258.75;5081166;28;19925;-64
2023/03/25 05:57:44;;;;;;;;;;;;;;;10.80;100.00;97265.78;5078326;28;19940;-63
2023/03/25 06:00:14;;;;;;;;;;;;;;;10.93;100.00;97263.53;5078033;28;19992;-63
2023/03/25 06:02:41;;;;;;;;;;;;;;;10.77;100.00;97246.84;5070470;28;19925;-63
2023/03/25 06:05:08;;;;;;;;;;;;;;;10.76;100.00;97259.41;5078180;28;19935;-64
2023/03/25 06:07:36;;;;;;;;;;;;;;;10.92;100.00;97264.63;5081342;28;19929;-64
2023/03/25 06:10:03;;;;;;;;;;;;;;;10.91;100.00;97273.72;5081797;28;19924;-64
2023/03/25 06:12:31;;;;;;;;;;;;;;;10.93;100.00;97282.22;5079420;28;19925;-64
2023/03/25 06:14:58;;;;;;;;;;;;;;;10.74;100.00;97271.44;5077917;28;19974;-64
2023/03/25 06:17:26;;;;;;;;;;;;;;;10.65;100.00;97275.78;5079648;28;19925;-64
2023/03/25 06:19:52;;;;;;;;;;;;;;;10.84;100.00;97290.84;5081802;28;20489;-64
2023/03/25 06:22:20;;;;;;;;;;;;;;;10.98;100.00;97283.00;5079466;28;19963;-63
2023/03/25 06:24:47;;;;;;;;;;;;;;;10.81;100.00;97283.41;5078313;28;19924;-63
2023/03/25 06:27:14;;;;;;;;;;;;;;;10.73;100.00;97289.34;5078437;28;19935;-63
2023/03/25 06:29:41;;;;;;;;;;;;;;;10.90;100.00;97298.81;5081390;28;19947;-63
2023/03/25 06:32:07;;;;;;;;;;;;;;;10.63;100.00;97293.97;5078262;28;19929;-63
2023/03/25 06:34:35;;;;;;;;;;;;;;;10.81;100.00;97318.13;5081164;28;19958;-63
2023/03/25 06:37:02;;;;;;;;;;;;;;;10.83;100.00;97309.84;5081769;28;19956;-63
2023/03/25 06:39:29;;;;;;;;;;;;;;;10.69;100.00;97301.66;5079179;28;19925;-63
2023/03/25 06:41:56;;;;;;;;;;;;;;;10.86;100.00;97308.47;5078390;28;19935;-63
2023/03/25 06:44:22;;;;;;;;;;;;;;;10.87;100.00;97310.88;5079876;28;19992;-63
2023/03/25 06:46:49;;;;;;;;;;;;;;;10.63;100.00;97305.44;5081758;28;19983;-63
2023/03/25 06:49:15;;;;;;;;;;;;;;;10.64;100.00;97301.69;5081084;28;20018;-63
2023/03/25 06:51:43;;;;;;;;;;;;;;;10.71;100.00;97304.84;5078517;28;19971;-63
2023/03/25 06:54:09;;;;;;;;;;;;;;;10.69;100.00;97319.53;5078526;28;19975;-63
2023/03/25 06:56:36;;;;;;;;;;;;;;;10.77;100.00;97316.28;5080490;28;19925;-63
2023/03/25 06:59:02;;;;;;;;;;;;;;;10.90;100.00;97325.53;5081989;28;19925;-63
2023/03/25 07:01:29;;;;;;;;;;;;;;;10.84;100.00;97330.91;5079441;28;19996;-63
2023/03/25 07:03:55;;;;;;;;;;;;;;;10.90;100.00;97330.88;5078477;28;19928;-63
2023/03/25 07:06:22;;;;;;;;;;;;;;;10.99;100.00;97335.34;5079791;28;20139;-63
2023/03/25 07:08:50;;;;;;;;;;;;;;;11.11;100.00;97338.44;5081918;28;19930;-63
2023/03/25 07:11:19;;;;;;;;;;;;;;;11.08;100.00;97332.91;5081226;28;19924;-63
2023/03/25 07:13:46;;;;;;;;;;;;;;;11.10;100.00;97341.41;5078131;28;19956;-63
2023/03/25 07:16:12;;;;;;;;;;;;;;;11.18;100.00;97346.16;5078040;28;19967;-62
2023/03/25 07:18:38;;;;;;;;;;;;;;;11.27;100.00;97352.47;5070079;28;19936;-63
2023/03/25 07:21:05;;;;;;;;;;;;;;;11.32;100.00;97363.16;5078040;28;19932;-64
2023/03/25 07:23:31;;;;;;;;;;;;;;;11.31;100.00;97357.00;5080522;28;19932;-63
2023/03/25 07:25:59;;;;;;;;;;;;;;;11.03;100.00;97364.97;5081499;28;19993;-63
2023/03/25 07:28:25;;;;;;;;;;;;;;;11.12;100.00;97356.09;5079334;28;19929;-63
2023/03/25 07:30:52;;;;;;;;;;;;;;;11.22;100.00;97350.66;5078606;28;19991;-63
2023/03/25 07:33:18;;;;;;;;;;;;;;;10.90;100.00;97355.72;5080610;28;19959;-62
2023/03/25 07:35:44;;;;;;;;;;;;;;;11.11;100.00;97353.72;5080828;28;19940;-62
2023/03/25 07:38:11;;;;;;;;;;;;;;;10.82;100.00;97346.44;5081431;28;19924;-63
2023/03/25 07:40:37;;;;;;;;;;;;;;;11.00;100.00;97347.63;5073132;28;19992;-63
2023/03/25 07:43:05;;;;;;;;;;;;;;;11.18;100.00;97354.97;5081211;28;19961;-63
2023/03/25 07:45:32;;;;;;;;;;;;;;;11.14;100.00;97369.19;5083726;28;19948;-63
2023/03/25 07:48:00;;;;;;;;;;;;;;;10.96;100.00;97367.97;5084644;28;19952;-64
2023/03/25 07:50:26;;;;;;;;;;;;;;;11.14;100.00;97369.97;5082704;28;19928;-64
2023/03/25 07:52:52;;;;;;;;;;;;;;;10.94;100.00;97355.97;5081138;28;19984;-64
2023/03/25 07:55:19;;;;;;;;;;;;;;;11.06;100.00;97351.06;5081896;28;20072;-64
2023/03/25 07:57:45;;;;;;;;;;;;;;;11.09;100.00;97356.66;5084610;28;20927;-63
2023/03/25 08:00:14;;;;;;;;;;;;;;;11.03;100.00;97360.44;5079804;28;19928;-64
2023/03/25 08:02:40;;;;;;;;;;;;;;;11.00;100.00;97352.19;5073162;28;19977;-64
2023/03/25 08:05:07;;;;;;;;;;;;;;;11.06;100.00;97359.06;5081100;28;19987;-63
2023/03/25 08:07:33;;;;;;;;;;;;;;;11.04;100.00;97353.22;5082695;28;19991;-63
2023/03/25 08:10:00;;;;;;;;;;;;;;;10.99;100.00;97345.22;5084270;28;19956;-63
2023/03/25 08:12:26;;;;;;;;;;;;;;;10.98;100.00;97347.13;5082217;28;20479;-64
2023/03/25 08:14:52;;;;;;;;;;;;;;;11.05;100.00;97350.25;5079244;28;19932;-63
2023/03/25 08:17:20;;;;;;;;;;;;;;;11.00;100.00;97336.16;5081479;28;20017;-63
2023/03/25 08:19:46;;;;;;;;;;;;;;;11.11;100.00;97343.03;5084115;28;19967;-63
2023/03/25 08:22:13;;;;;;;;;;;;;;;11.10;100.00;97347.56;5083832;28;19925;-63
2023/03/25 08:24:39;;;;;;;;;;;;;;;11.17;100.00;97344.56;5080475;28;19927;-64
2023/03/25 08:27:05;;;;;;;;;;;;;;;11.09;100.00;97339.81;5080520;28;19928;-63
2023/03/25 08:29:33;;;;;;;;;;;;;;;11.22;100.00;97352.53;5083177;28;19968;-63
2023/03/25 08:32:00;;;;;;;;;;;;;;;11.40;100.00;97346.50;5081124;28;19995;-63
2023/03/25 08:34:27;;;;;;;;;;;;;;;11.15;100.00;97344.03;5082510;28;19974;-63
2023/03/25 08:36:54;;;;;;;;;;;;;;;11.13;100.00;97346.19;5084034;28;19964;-64
2023/03/25 08:39:20;;;;;;;;;;;;;;;11.15;100.00;97349.38;5082687;28;19925;-63
2023/03/25 08:41:47;;;;;;;;;;;;;;;11.18;100.00;97354.97;5080228;28;19925;-63
2023/03/25 08:44:13;;;;;;;;;;;;;;;11.09;100.00;97329.13;5080213;28;19925;-63
2023/03/25 08:46:39;;;;;;;;;;;;;;;11.18;100.00;97351.50;5082247;28;19931;-63
2023/03/25 08:49:06;;;;;;;;;;;;;;;11.20;100.00;97352.03;5083568;28;19924;-64
2023/03/25 08:51:34;;;;;;;;;;;;;;;11.19;100.00;97351.22;5080588;28;19962;-64
2023/03/25 08:54:00;;;;;;;;;;;;;;;11.42;100.00;97343.56;5080005;28;19924;-64
2023/03/25 08:56:27;;;;;;;;;;;;;;;11.30;100.00;97341.22;5081926;28;19932;-64
2023/03/25 08:58:53;;;;;;;;;;;;;;;11.34;100.00;97342.28;5083326;28;19984;-63
2023/03/25 09:01:20;;;;;;;;;;;;;;;11.50;100.00;97351.75;5073898;28;19964;-65
2023/03/25 09:03:47;;;;;;;;;;;;;;;11.37;100.00;97342.50;5083348;28;19924;-64
2023/03/25 09:06:13;;;;;;;;;;;;;;;11.59;100.00;97335.88;5082863;28;19991;-63
2023/03/25 09:08:41;;;;;;;;;;;;;;;11.65;100.00;97338.22;5079739;28;20022;-63
2023/03/25 09:11:07;;;;;;;;;;;;;;;11.58;100.00;97331.59;5079852;28;19928;-64
2023/03/25 09:13:33;;;;;;;;;;;;;;;11.49;100.00;97323.41;5082536;28;19948;-64
2023/03/25 09:16:00;;;;;;;;;;;;;;;11.53;100.00;97324.44;5082776;28;19959;-64
2023/03/25 09:18:26;;;;;;;;;;;;;;;11.54;100.00;97326.06;5081093;28;19966;-64
2023/03/25 09:20:57;;;;;;;;;;;;;;;11.61;100.00;97336.38;5078296;28;19925;-64
2023/03/25 09:23:24;;;;;;;;;;;;;;;11.54;100.00;97328.72;5080989;28;19963;-64
2023/03/25 09:25:51;;;;;;;;;;;;;;;11.61;100.00;97336.38;5082909;28;19924;-63
2023/03/25 09:28:18;;;;;;;;;;;;;;;11.66;100.00;97336.34;5081912;28;19932;-64
2023/03/25 09:30:44;;;;;;;;;;;;;;;11.60;100.00;97340.97;5073473;28;19947;-64
2023/03/25 09:33:10;;;;;;;;;;;;;;;11.80;100.00;97343.44;5079283;28;19960;-64
2023/03/25 09:35:37;;;;;;;;;;;;;;;11.90;100.00;97345.22;5082503;28;19929;-64
2023/03/25 09:38:04;;;;;;;;;;;;;;;11.95;100.00;97334.44;5081544;28;19995;-64
2023/03/25 09:40:31;;;;;;;;;;;;;;;12.03;100.00;97327.69;5079978;28;19925;-63
2023/03/25 09:43:06;;;;;;;;;;;;;;;12.13;100.00;97327.56;5094801;28;19925;-65
2023/03/25 09:45:35;;;;;;;;;;;;;;;12.25;100.00;97325.25;5081779;28;19939;-63
2023/03/25 09:48:05;;;;;;;;;;;;;;;12.43;100.00;97322.59;5082570;28;19934;-64
2023/03/25 09:50:33;;;;;;;;;;;;;;;12.55;100.00;97319.50;5079787;28;19971;-63
2023/03/25 09:53:02;;;;;;;;;;;;;;;12.40;100.00;97322.38;5078854;28;19951;-63
2023/03/25 09:55:29;;;;;;;;;;;;;;;12.43;100.00;97311.09;5080915;28;19939;-64
2023/03/25 09:58:00;;;;;;;;;;;;;;;12.44;100.00;97313.47;5082013;28;19977;-64
2023/03/25 10:00:28;;;;;;;;;;;;;;;12.40;100.00;97306.31;5076883;28;19925;-64
2023/03/25 10:03:00;;;;;;;;;;;;;;;12.43;100.00;97311.09;5082254;28;19924;-64
2023/03/25 10:05:35;;;;;;;;;;;;;;;12.54;100.00;97307.19;5080187;28;20003;-63
2023/03/25 10:08:08;;;;;;;;;;;;;;;12.47;100.00;97289.88;5078701;28;19988;-64
2023/03/25 10:10:36;;;;;;;;;;;;;;;12.58;100.00;97308.19;5081510;28;19992;-64
2023/03/25 10:13:07;;;;;;;;;;;;;;;12.58;100.00;97292.13;5082468;28;19931;-63
2023/03/25 10:15:40;;;;;;;;;;;;;;;12.84;100.00;97284.50;5079093;28;19929;-63
2023/03/25 10:18:17;;;;;;;;;;;;;;;12.72;100.00;97290.28;5078685;28;19964;-64
2023/03/25 10:20:46;;;;;;;;;;;;;;;12.75;100.00;97284.34;5070049;28;19992;-64
2023/03/25 10:23:17;;;;;;;;;;;;;;;12.70;100.00;97297.03;5078553;28;19924;-64
2023/03/25 10:25:45;;;;;;;;;;;;;;;12.71;100.00;97286.03;5071057;28;19952;-63
2023/03/25 10:28:16;;;;;;;;;;;;;;;12.79;100.00;97281.88;5078403;28;20341;-63
2023/03/25 10:30:46;;;;;;;;;;;;;;;12.87;100.00;97282.00;5070088;28;20030;-64
2023/03/25 10:33:17;;;;;;;;;;;;;;;12.88;100.00;97280.13;5082137;28;19984;-63
2023/03/25 10:35:46;;;;;;;;;;;;;;;12.86;100.00;97272.41;5071380;28;19946;-64
2023/03/25 10:38:17;;;;;;;;;;;;;;;12.80;100.00;97283.50;5078423;28;19925;-63
2023/03/25 10:40:48;;;;;;;;;;;;;;;12.78;100.00;97278.41;5070929;28;19978;-63
2023/03/25 10:43:18;;;;;;;;;;;;;;;12.93;100.00;97275.50;5078797;28;19932;-64
2023/03/25 10:45:47;;;;;;;;;;;;;;;12.99;100.00;97282.38;5081984;28;19956;-64
2023/03/25 10:48:16;;;;;;;;;;;;;;;12.88;100.00;97291.66;5081852;28;19952;-64
2023/03/25 10:50:43;;;;;;;;;;;;;;;12.86;100.00;97293.03;5078410;28;19974;-63
2023/03/25 10:53:14;;;;;;;;;;;;;;;12.97;100.00;97287.22;5078468;28;19947;-63
2023/03/25 10:55:41;;;;;;;;;;;;;;;12.98;100.00;97264.69;5070445;28;19932;-64
2023/03/25 10:58:07;;;;;;;;;;;;;;;13.30;100.00;97276.53;5078358;28;19939;-63
2023/03/25 11:00:34;;;;;;;;;;;;;;;13.27;100.00;97261.81;5080107;28;19925;-63
2023/03/25 11:03:03;;;;;;;;;;;;;;;13.39;100.00;97275.53;5081956;28;20007;-63
2023/03/25 11:05:30;;;;;;;;;;;;;;;13.56;100.00;97282.19;5079421;28;19920;-63
2023/03/25 11:08:00;;;;;;;;;;;;;;;13.60;100.00;97269.78;5078273;28;19975;-63
2023/03/25 11:10:28;;;;;;;;;;;;;;;13.55;100.00;97265.31;5082396;28;19935;-64
2023/03/25 11:12:57;;;;;;;;;;;;;;;13.51;100.00;97269.69;5085212;28;19928;-64
2023/03/25 11:15:24;;;;;;;;;;;;;;;13.41;100.00;97253.78;5083619;28;19931;-64
2023/03/25 11:17:59;;;;;;;;;;;;;;;13.40;100.00;97252.22;5081856;28;19967;-63
2023/03/25 11:20:29;;;;;;;;;;;;;;;13.62;100.00;97241.56;5083181;28;20282;-64
2023/03/25 11:23:00;;;;;;;;;;;;;;;13.54;100.00;97234.22;5085225;28;19936;-64
2023/03/25 11:25:31;;;;;;;;;;;;;;;13.74;100.00;97233.81;5083260;28;20058;-63
2023/03/25 11:27:58;;;;;;;;;;;;;;;13.57;100.00;97212.16;5081572;28;19988;-64
2023/03/25 11:30:25;;;;;;;;;;;;;;;13.62;99.78;97228.16;5083105;28;20015;-64
2023/03/25 11:33:00;;;;;;;;;;;;;;;13.62;99.35;97230.84;5100615;28;19925;-63
2023/03/25 11:35:29;;;;;;;;;;;;;;;13.48;100.00;97232.72;5083194;28;19936;-63
2023/03/25 11:37:57;;;;;;;;;;;;;;;13.44;100.00;97245.13;5080463;28;19952;-65
2023/03/25 11:40:23;;;;;;;;;;;;;;;13.28;100.00;97235.78;5082908;28;19933;-64
2023/03/25 11:42:52;;;;;;;;;;;;;;;13.17;100.00;97250.47;5084953;28;19924;-63
2023/03/25 11:45:20;;;;;;;;;;;;;;;13.10;100.00;97250.84;5084073;28;19979;-64
2023/03/25 11:47:46;;;;;;;;;;;;;;;13.12;100.00;97255.94;5081636;28;19952;-64
2023/03/25 11:50:20;;;;;;;;;;;;;;;13.03;100.00;97244.25;5081355;28;19932;-64
2023/03/25 11:52:50;;;;;;;;;;;;;;;12.95;100.00;97257.25;5084860;28;20026;-64
2023/03/25 11:55:18;;;;;;;;;;;;;;;12.91;100.00;97250.06;5084187;28;19924;-63
2023/03/25 11:57:46;;;;;;;;;;;;;;;12.94;100.00;97246.81;5081339;28;19974;-64
2023/03/25 12:00:21;;;;;;;;;;;;;;;13.00;100.00;97259.03;5080964;28;19925;-64
2023/03/25 12:02:47;;;;;;;;;;;;;;;12.91;100.00;97253.53;5073793;28;19929;-64
2023/03/25 12:05:15;;;;;;;;;;;;;;;12.84;100.00;97261.16;5079714;28;19970;-64
2023/03/25 12:07:42;;;;;;;;;;;;;;;12.92;100.00;97259.72;5084118;28;19924;-63
2023/03/25 12:10:16;;;;;;;;;;;;;;;13.03;100.00;97249.63;5084153;28;19963;-64
2023/03/25 12:12:45;;;;;;;;;;;;;;;13.02;100.00;97232.75;5071694;28;19999;-63
2023/03/25 12:15:17;;;;;;;;;;;;;;;13.06;100.00;97227.59;5080362;28;20011;-64
2023/03/25 12:17:51;;;;;;;;;;;;;;;13.09;100.00;97224.34;5073054;28;19924;-64
2023/03/25 12:20:23;;;;;;;;;;;;;;;13.04;100.00;97221.72;5080647;28;19925;-64
2023/03/25 12:22:57;;;;;;;;;;;;;;;13.08;100.00;97214.69;5083965;28;19971;-64
2023/03/25 12:25:29;;;;;;;;;;;;;;;13.10;100.00;97217.88;5081136;28;19925;-64
2023/03/25 12:28:02;;;;;;;;;;;;;;;13.10;100.00;97204.47;5080306;28;19988;-64
2023/03/25 12:30:34;;;;;;;;;;;;;;;13.22;100.00;97205.59;5082434;28;19936;-64
2023/03/25 12:33:05;;;;;;;;;;;;;;;13.14;100.00;97208.16;5083693;28;19974;-64
2023/03/25 12:35:37;;;;;;;;;;;;;;;13.18;100.00;97198.44;5080938;28;19992;-64
2023/03/25 12:38:15;;;;;;;;;;;;;;;13.10;100.00;97196.44;5080168;28;19924;-64
2023/03/25 12:40:54;;;;;;;;;;;;;;;13.06;100.00;97190.06;5072413;28;19936;-64